createdAt,value
2023-03-10T00:00:33.840Z,26.30
2023-03-10T00:03:00.560Z,26.30
2023-03-10T00:05:27.175Z,26.30
2023-03-10T00:07:53.718Z,26.40
2023-03-10T00:10:20.389Z,26.40
2023-03-10T00:12:46.974Z,26.30
2023-03-10T00:15:14.093Z,26.40
2023-03-10T00:17:41.063Z,26.40
2023-03-10T00:20:11.682Z,26.30
2023-03-10T00:22:39.668Z,26.40
2023-03-10T00:25:07.884Z,26.40
2023-03-10T00:27:34.489Z,26.30
2023-03-10T00:30:01.637Z,26.30
2023-03-10T00:32:28.374Z,26.30
2023-03-10T00:34:55.030Z,26.30
2023-03-10T00:37:21.656Z,26.40
2023-03-10T00:39:52.362Z,26.30
2023-03-10T00:42:19.287Z,26.30
2023-03-10T00:44:46.236Z,26.40
2023-03-10T00:47:12.855Z,26.40
2023-03-10T00:49:39.382Z,26.40
2023-03-10T00:52:06.212Z,26.40
2023-03-10T00:54:32.784Z,26.30
2023-03-10T00:56:59.327Z,26.30
2023-03-10T00:59:25.961Z,26.30
2023-03-10T01:01:52.583Z,26.30
2023-03-10T01:04:19.902Z,26.40
2023-03-10T01:06:47.558Z,26.40
2023-03-10T01:09:14.618Z,26.30
2023-03-10T01:11:41.431Z,26.30
2023-03-10T01:14:11.099Z,26.30
2023-03-10T01:16:37.967Z,26.30
2023-03-10T01:19:04.796Z,26.40
2023-03-10T01:21:35.379Z,26.30
2023-03-10T01:24:02.479Z,26.30
2023-03-10T01:26:29.604Z,26.40
2023-03-10T01:28:56.337Z,26.30
2023-03-10T01:31:23.468Z,26.30
2023-03-10T01:33:50.288Z,26.30
2023-03-10T01:36:19.911Z,26.40
2023-03-10T01:38:48.027Z,26.30
2023-03-10T01:41:15.822Z,26.30
2023-03-10T01:43:43.913Z,26.30
2023-03-10T01:46:39.455Z,26.30
2023-03-10T01:49:13.454Z,26.30
2023-03-10T01:51:42.537Z,26.30
2023-03-10T01:54:14.404Z,26.30
2023-03-10T01:56:41.607Z,26.30
2023-03-10T01:59:09.691Z,26.30
2023-03-10T02:01:37.036Z,26.30
2023-03-10T02:04:11.582Z,26.30
2023-03-10T02:06:41.641Z,26.30
2023-03-10T02:09:09.291Z,26.30
2023-03-10T02:11:37.514Z,26.30
2023-03-10T02:14:06.232Z,26.30
2023-03-10T02:16:34.169Z,26.30
2023-03-10T02:19:01.187Z,26.30
2023-03-10T02:21:59.832Z,26.30
2023-03-10T02:24:45.278Z,26.20
2023-03-10T02:27:11.774Z,26.30
2023-03-10T02:29:58.024Z,26.30
2023-03-10T02:32:25.634Z,26.30
2023-03-10T02:34:52.519Z,26.30
2023-03-10T02:37:28.194Z,26.20
2023-03-10T02:39:54.826Z,26.20
2023-03-10T02:42:25.029Z,26.30
2023-03-10T02:44:52.848Z,26.20
2023-03-10T02:47:20.352Z,26.20
2023-03-10T02:49:46.912Z,26.30
2023-03-10T02:52:26.702Z,26.20
2023-03-10T02:54:53.302Z,26.30
2023-03-10T02:57:19.894Z,26.30
2023-03-10T02:59:46.543Z,26.30
2023-03-10T03:02:13.106Z,26.20
2023-03-10T03:04:39.687Z,26.30
2023-03-10T03:07:06.297Z,26.30
2023-03-10T03:09:32.950Z,26.30
2023-03-10T03:12:00.016Z,26.30
2023-03-10T03:14:26.594Z,26.30
2023-03-10T03:16:53.220Z,26.20
2023-03-10T03:19:19.969Z,26.30
2023-03-10T03:21:49.773Z,26.30
2023-03-10T03:24:21.199Z,26.20
2023-03-10T03:26:48.287Z,26.30
2023-03-10T03:29:15.206Z,26.30
2023-03-10T03:31:42.598Z,26.30
2023-03-10T03:34:09.467Z,26.30
2023-03-10T03:36:37.760Z,26.30
2023-03-10T03:39:06.984Z,26.30
2023-03-10T03:41:34.041Z,26.30
2023-03-10T03:44:00.929Z,26.30
2023-03-10T03:46:27.860Z,26.30
2023-03-10T03:48:54.550Z,26.20
2023-03-10T03:51:21.356Z,26.30
2023-03-10T03:53:47.962Z,26.20
2023-03-10T03:56:14.529Z,26.30
2023-03-10T03:58:41.095Z,26.30
2023-03-10T04:01:07.658Z,26.20
2023-03-10T04:03:34.243Z,26.30
2023-03-10T04:06:01.597Z,26.30
2023-03-10T04:08:28.219Z,26.30
2023-03-10T04:10:55.796Z,26.30
2023-03-10T04:13:22.388Z,26.30
2023-03-10T04:15:49.001Z,26.30
2023-03-10T04:18:15.743Z,26.30
2023-03-10T04:20:42.342Z,26.30
2023-03-10T04:23:08.974Z,26.30
2023-03-10T04:25:36.260Z,26.30
2023-03-10T04:28:02.967Z,26.30
2023-03-10T04:30:29.713Z,26.30
2023-03-10T04:33:00.575Z,26.30
2023-03-10T04:35:28.357Z,26.30
2023-03-10T04:37:54.947Z,26.30
2023-03-10T04:40:21.925Z,26.40
2023-03-10T04:42:48.521Z,26.30
2023-03-10T04:45:15.164Z,26.30
2023-03-10T04:47:41.869Z,26.30
2023-03-10T04:50:10.433Z,26.30
2023-03-10T04:52:36.960Z,26.30
2023-03-10T04:55:03.871Z,26.30
2023-03-10T04:57:30.434Z,26.30
2023-03-10T04:59:57.045Z,26.40
2023-03-10T05:02:32.106Z,26.30
2023-03-10T05:04:58.639Z,26.30
2023-03-10T05:07:25.210Z,26.30
2023-03-10T05:09:52.290Z,26.40
2023-03-10T05:12:18.947Z,26.30
2023-03-10T05:14:45.502Z,26.20
2023-03-10T05:17:12.426Z,26.40
2023-03-10T05:19:38.985Z,26.40
2023-03-10T05:22:06.651Z,26.40
2023-03-10T05:24:33.729Z,26.40
2023-03-10T05:27:02.511Z,26.40
2023-03-10T05:29:29.295Z,26.40
2023-03-10T05:31:56.004Z,26.40
2023-03-10T05:34:25.280Z,26.40
2023-03-10T05:36:52.349Z,26.40
2023-03-10T05:39:18.976Z,26.40
2023-03-10T05:41:45.515Z,26.40
2023-03-10T05:44:12.137Z,26.40
2023-03-10T05:46:39.283Z,26.40
2023-03-10T05:49:05.913Z,26.50
2023-03-10T05:51:32.610Z,26.50
2023-03-10T05:53:59.214Z,26.50
2023-03-10T05:56:25.932Z,26.60
2023-03-10T05:58:52.496Z,26.60
2023-03-10T06:01:19.654Z,26.70
2023-03-10T06:03:47.142Z,26.70
2023-03-10T06:06:13.943Z,26.80
2023-03-10T06:08:41.742Z,26.80
2023-03-10T06:11:08.361Z,26.90
2023-03-10T06:13:35.271Z,26.90
2023-03-10T06:16:04.212Z,27.00
2023-03-10T06:18:30.883Z,27.00
2023-03-10T06:20:57.848Z,27.00
2023-03-10T06:23:25.217Z,27.20
2023-03-10T06:26:06.762Z,27.10
2023-03-10T06:28:36.647Z,27.10
2023-03-10T06:31:09.050Z,27.20
2023-03-10T06:33:35.667Z,27.20
2023-03-10T06:36:02.692Z,27.20
2023-03-10T06:38:30.388Z,27.30
2023-03-10T06:40:57.950Z,27.30
2023-03-10T06:43:24.548Z,27.30
2023-03-10T06:45:51.812Z,27.30
2023-03-10T06:48:18.384Z,27.40
2023-03-10T06:50:49.621Z,27.40
2023-03-10T06:53:20.643Z,27.30
2023-03-10T06:55:58.915Z,27.40
2023-03-10T06:58:25.548Z,27.40
2023-03-10T07:00:52.203Z,27.50
2023-03-10T07:03:19.115Z,27.50
2023-03-10T07:05:45.831Z,27.50
2023-03-10T07:08:12.402Z,27.60
2023-03-10T07:10:39.238Z,27.50
2023-03-10T07:13:05.765Z,27.50
2023-03-10T07:15:32.397Z,27.60
2023-03-10T07:18:00.222Z,27.50
2023-03-10T07:20:26.772Z,27.60
2023-03-10T07:22:53.302Z,27.60
2023-03-10T07:25:19.949Z,27.70
2023-03-10T07:27:46.554Z,27.60
2023-03-10T07:30:13.731Z,27.70
2023-03-10T07:32:40.509Z,27.70
2023-03-10T07:35:07.668Z,27.70
2023-03-10T07:37:37.784Z,27.70
2023-03-10T07:40:05.784Z,27.70
2023-03-10T07:42:32.479Z,27.70
2023-03-10T07:44:59.087Z,27.70
2023-03-10T07:47:25.752Z,27.80
2023-03-10T07:49:52.298Z,27.90
2023-03-10T07:52:19.404Z,27.80
2023-03-10T07:54:46.094Z,27.90
2023-03-10T07:57:13.979Z,27.90
2023-03-10T07:59:41.619Z,27.80
2023-03-10T08:02:12.811Z,28.00
2023-03-10T08:04:40.706Z,28.00
2023-03-10T08:07:08.426Z,28.00
2023-03-10T08:09:35.593Z,28.00
2023-03-10T08:12:03.384Z,28.00
2023-03-10T08:14:32.075Z,28.00
2023-03-10T08:16:59.349Z,28.10
2023-03-10T08:19:27.374Z,28.10
2023-03-10T08:21:55.654Z,28.10
2023-03-10T08:24:22.542Z,28.10
2023-03-10T08:26:49.144Z,28.20
2023-03-10T08:29:16.028Z,28.20
2023-03-10T08:31:43.533Z,28.20
2023-03-10T08:34:10.231Z,28.20
2023-03-10T08:36:38.115Z,28.20
2023-03-10T08:39:05.723Z,28.30
2023-03-10T08:41:48.836Z,28.30
2023-03-10T08:44:18.232Z,28.50
2023-03-10T08:46:49.179Z,28.30
2023-03-10T08:49:17.457Z,28.40
2023-03-10T08:51:44.401Z,28.40
2023-03-10T08:54:13.644Z,28.40
2023-03-10T08:56:40.178Z,28.40
2023-03-10T08:59:07.427Z,28.50
2023-03-10T09:01:37.102Z,28.50
2023-03-10T09:04:05.977Z,28.50
2023-03-10T09:06:33.300Z,28.60
2023-03-10T09:09:00.443Z,28.50
2023-03-10T09:11:31.726Z,28.50
2023-03-10T09:13:59.752Z,28.50
2023-03-10T09:16:28.460Z,28.60
2023-03-10T09:18:56.627Z,28.50
2023-03-10T09:21:23.339Z,28.50
2023-03-10T09:23:52.598Z,28.70
2023-03-10T09:26:20.554Z,28.50
2023-03-10T09:28:49.348Z,28.50
2023-03-10T09:31:19.487Z,28.50
2023-03-10T09:33:48.276Z,28.50
2023-03-10T09:36:16.301Z,28.40
2023-03-10T09:38:43.117Z,28.60
2023-03-10T09:41:34.599Z,28.60
2023-03-10T09:44:22.784Z,28.50
2023-03-10T09:47:09.534Z,28.60
2023-03-10T09:49:39.847Z,28.60
2023-03-10T09:52:19.856Z,28.60
2023-03-10T09:55:06.064Z,28.60
2023-03-10T09:57:33.470Z,28.60
2023-03-10T10:00:08.176Z,28.60
2023-03-10T10:02:39.603Z,28.60
2023-03-10T10:05:19.601Z,28.60
2023-03-10T10:07:53.143Z,28.60
2023-03-10T10:10:32.303Z,28.70
2023-03-10T10:13:11.810Z,28.70
2023-03-10T10:15:40.662Z,28.70
2023-03-10T10:18:25.552Z,28.70
2023-03-10T10:21:04.847Z,28.70
2023-03-10T10:23:51.104Z,28.70
2023-03-10T10:26:23.500Z,28.70
2023-03-10T10:29:25.460Z,28.80
2023-03-10T10:32:09.978Z,28.80
2023-03-10T10:34:39.705Z,28.80
2023-03-10T10:37:26.601Z,28.80
2023-03-10T10:39:56.273Z,28.80
2023-03-10T10:42:25.007Z,28.90
2023-03-10T10:45:04.054Z,28.90
2023-03-10T10:47:35.228Z,28.90
2023-03-10T10:50:20.564Z,28.90
2023-03-10T10:52:50.455Z,28.90
2023-03-10T10:55:34.789Z,29.00
2023-03-10T10:58:06.920Z,28.90
2023-03-10T11:00:38.327Z,29.00
2023-03-10T11:03:24.474Z,29.00
2023-03-10T11:05:51.245Z,29.00
2023-03-10T11:08:26.960Z,29.00
2023-03-10T11:11:00.523Z,29.00
2023-03-10T11:14:11.935Z,29.00
2023-03-10T11:16:55.014Z,29.00
2023-03-10T11:19:56.977Z,29.00
2023-03-10T11:22:26.951Z,29.10
2023-03-10T11:25:32.045Z,29.10
2023-03-10T11:28:28.033Z,29.10
2023-03-10T11:31:23.866Z,29.10
2023-03-10T11:34:07.444Z,29.10
2023-03-10T11:36:55.863Z,28.90
2023-03-10T11:39:38.932Z,29.10
2023-03-10T11:42:41.460Z,29.10
2023-03-10T11:45:43.174Z,29.10
2023-03-10T11:48:30.382Z,29.10
2023-03-10T11:51:03.635Z,29.10
2023-03-10T11:53:47.515Z,29.10
2023-03-10T11:56:18.294Z,29.10
2023-03-10T11:59:06.759Z,29.20
2023-03-10T12:01:48.256Z,29.10
2023-03-10T12:04:36.328Z,29.20
2023-03-10T12:07:24.283Z,29.20
2023-03-10T12:09:54.557Z,29.20
2023-03-10T12:12:29.750Z,29.20
2023-03-10T12:14:59.161Z,29.20
2023-03-10T12:17:26.680Z,29.20
2023-03-10T12:20:29.602Z,29.20
2023-03-10T12:23:11.383Z,29.20
2023-03-10T12:25:38.332Z,29.20
2023-03-10T12:28:16.786Z,29.30
2023-03-10T12:30:58.761Z,29.20
2023-03-10T12:33:50.302Z,29.30
2023-03-10T12:36:39.433Z,29.30
2023-03-10T12:39:29.171Z,29.40
2023-03-10T12:42:03.593Z,29.30
2023-03-10T12:44:34.002Z,29.30
2023-03-10T12:47:17.637Z,29.30
2023-03-10T12:50:14.537Z,29.30
2023-03-10T12:52:41.088Z,29.30
2023-03-10T12:55:21.896Z,29.30
2023-03-10T12:57:57.244Z,29.30
2023-03-10T13:00:38.301Z,29.30
2023-03-10T13:03:12.606Z,29.30
2023-03-10T13:05:42.106Z,29.30
2023-03-10T13:08:24.328Z,29.10
2023-03-10T13:10:55.946Z,29.30
2023-03-10T13:13:30.121Z,29.30
2023-03-10T13:16:02.271Z,29.40
2023-03-10T13:18:29.427Z,29.30
2023-03-10T13:20:56.206Z,29.30
2023-03-10T13:23:29.429Z,29.40
2023-03-10T13:25:59.037Z,29.30
2023-03-10T13:28:28.301Z,29.30
2023-03-10T13:31:14.566Z,29.30
2023-03-10T13:33:53.492Z,29.30
2023-03-10T13:36:34.303Z,29.30
2023-03-10T13:39:04.111Z,29.30
2023-03-10T13:41:37.138Z,29.30
2023-03-10T13:44:03.975Z,29.30
2023-03-10T13:46:32.961Z,29.30
2023-03-10T13:49:08.280Z,29.40
2023-03-10T13:51:37.027Z,29.30
2023-03-10T13:54:23.586Z,29.30
2023-03-10T13:56:53.369Z,29.30
2023-03-10T13:59:29.765Z,29.30
2023-03-10T14:01:58.851Z,29.30
2023-03-10T14:04:49.503Z,29.30
2023-03-10T14:07:28.234Z,29.30
2023-03-10T14:10:04.170Z,29.30
2023-03-10T14:12:38.190Z,29.40
2023-03-10T14:15:20.001Z,29.30
2023-03-10T14:17:49.092Z,29.30
2023-03-10T14:20:31.318Z,29.40
2023-03-10T14:22:58.489Z,29.40
2023-03-10T14:25:25.820Z,29.30
2023-03-10T14:28:12.749Z,29.40
2023-03-10T14:30:42.056Z,29.40
2023-03-10T14:33:12.448Z,29.40
2023-03-10T14:35:39.695Z,29.40
2023-03-10T14:38:06.380Z,29.40
2023-03-10T14:40:37.443Z,29.40
2023-03-10T14:43:04.416Z,29.40
2023-03-10T14:45:36.201Z,29.40
2023-03-10T14:48:12.409Z,29.40
2023-03-10T14:50:39.154Z,29.40
2023-03-10T14:53:10.889Z,29.50
2023-03-10T14:55:38.414Z,29.50
2023-03-10T14:58:06.517Z,29.50
2023-03-10T15:00:34.133Z,29.50
2023-03-10T15:03:01.200Z,29.50
2023-03-10T15:05:41.393Z,29.50
2023-03-10T15:08:13.778Z,29.50
2023-03-10T15:10:43.409Z,29.50
2023-03-10T15:13:15.836Z,29.50
2023-03-10T15:15:47.138Z,29.50
2023-03-10T15:18:16.441Z,29.50
2023-03-10T15:20:43.104Z,29.50
2023-03-10T15:23:11.914Z,29.50
2023-03-10T15:25:40.175Z,29.50
2023-03-10T15:28:06.747Z,29.40
2023-03-10T15:30:35.779Z,29.40
2023-03-10T15:33:03.450Z,29.40
2023-03-10T15:35:30.485Z,29.40
2023-03-10T15:37:57.593Z,29.40
2023-03-10T15:40:30.015Z,29.40
2023-03-10T15:42:57.734Z,29.40
2023-03-10T15:45:25.379Z,29.40
2023-03-10T15:47:52.280Z,29.40
2023-03-10T15:50:20.496Z,29.40
2023-03-10T15:52:49.315Z,29.40
2023-03-10T15:55:16.753Z,29.40
2023-03-10T15:57:44.500Z,29.40
2023-03-10T16:00:12.549Z,29.30
2023-03-10T16:02:39.191Z,29.30
2023-03-10T16:05:06.730Z,29.40
2023-03-10T16:07:33.568Z,29.30
2023-03-10T16:10:00.310Z,29.30
2023-03-10T16:12:27.149Z,29.30
2023-03-10T16:14:55.273Z,29.30
2023-03-10T16:17:22.904Z,29.30
2023-03-10T16:19:49.673Z,29.30
2023-03-10T16:22:16.756Z,29.30
2023-03-10T16:24:43.722Z,29.30
2023-03-10T16:27:10.540Z,29.30
2023-03-10T16:29:39.976Z,29.20
2023-03-10T16:32:08.660Z,29.30
2023-03-10T16:34:35.822Z,29.30
2023-03-10T16:37:02.530Z,29.30
2023-03-10T16:39:32.854Z,29.30
2023-03-10T16:42:00.159Z,29.30
2023-03-10T16:44:26.773Z,29.20
2023-03-10T16:46:53.636Z,29.20
2023-03-10T16:49:20.302Z,29.20
2023-03-10T16:51:47.901Z,29.20
2023-03-10T16:54:17.288Z,29.20
2023-03-10T16:56:47.472Z,29.20
2023-03-10T16:59:18.342Z,29.20
2023-03-10T17:01:45.935Z,29.20
2023-03-10T17:04:12.759Z,29.20
2023-03-10T17:06:39.578Z,29.20
2023-03-10T17:09:08.886Z,29.20
2023-03-10T17:11:41.125Z,29.20
2023-03-10T17:14:10.953Z,29.20
2023-03-10T17:16:38.127Z,29.20
2023-03-10T17:19:07.807Z,29.10
2023-03-10T17:21:38.143Z,29.10
2023-03-10T17:24:06.492Z,29.10
2023-03-10T17:26:33.823Z,29.10
2023-03-10T17:29:00.426Z,29.10
2023-03-10T17:31:28.747Z,29.10
2023-03-10T17:34:00.791Z,29.10
2023-03-10T17:36:28.657Z,29.10
2023-03-10T17:38:57.368Z,29.10
2023-03-10T17:41:24.170Z,29.10
2023-03-10T17:43:51.176Z,29.10
2023-03-10T17:46:20.695Z,29.10
2023-03-10T17:48:47.523Z,29.00
2023-03-10T17:51:25.294Z,29.00
2023-03-10T17:53:53.209Z,29.00
2023-03-10T17:56:21.814Z,29.00
2023-03-10T17:58:49.686Z,28.90
2023-03-10T18:01:22.474Z,28.80
2023-03-10T18:03:49.131Z,28.80
2023-03-10T18:06:18.452Z,28.80
2023-03-10T18:08:45.465Z,28.70
2023-03-10T18:11:12.103Z,28.70
2023-03-10T18:13:39.287Z,28.70
2023-03-10T18:16:07.222Z,28.70
2023-03-10T18:18:33.914Z,28.60
2023-03-10T18:21:00.446Z,28.60
2023-03-10T18:23:27.197Z,28.60
2023-03-10T18:25:53.825Z,28.60
2023-03-10T18:28:20.525Z,28.60
2023-03-10T18:30:49.786Z,28.60
2023-03-10T18:33:16.650Z,28.60
2023-03-10T18:35:45.741Z,28.60
2023-03-10T18:38:14.693Z,28.60
2023-03-10T18:40:41.545Z,28.60
2023-03-10T18:43:08.270Z,28.60
2023-03-10T18:45:35.431Z,28.50
2023-03-10T18:48:02.068Z,28.50
2023-03-10T18:50:28.768Z,28.50
2023-03-10T18:52:55.387Z,28.40
2023-03-10T18:55:21.996Z,28.50
2023-03-10T18:57:48.517Z,28.50
2023-03-10T19:00:15.648Z,28.40
2023-03-10T19:02:42.887Z,28.40
2023-03-10T19:05:13.268Z,28.40
2023-03-10T19:07:40.011Z,28.40
2023-03-10T19:10:07.714Z,28.40
2023-03-10T19:12:34.274Z,28.30
2023-03-10T19:15:05.207Z,28.30
2023-03-10T19:17:32.654Z,28.30
2023-03-10T19:19:59.473Z,28.20
2023-03-10T19:22:26.114Z,28.30
2023-03-10T19:24:52.661Z,28.20
2023-03-10T19:27:19.234Z,28.20
2023-03-10T19:29:52.200Z,28.20
2023-03-10T19:32:19.829Z,28.10
2023-03-10T19:34:46.909Z,28.20
2023-03-10T19:37:13.495Z,28.20
2023-03-10T19:39:40.154Z,28.10
2023-03-10T19:42:07.074Z,28.20
2023-03-10T19:44:33.695Z,28.20
2023-03-10T19:47:00.444Z,28.10
2023-03-10T19:49:27.081Z,28.10
2023-03-10T19:51:53.639Z,28.10
2023-03-10T19:54:20.182Z,28.10
2023-03-10T19:56:46.775Z,28.10
2023-03-10T19:59:13.352Z,28.20
2023-03-10T20:01:41.937Z,28.00
2023-03-10T20:04:09.942Z,28.00
2023-03-10T20:06:36.538Z,28.00
2023-03-10T20:09:04.623Z,28.00
2023-03-10T20:11:31.154Z,28.00
2023-03-10T20:13:57.689Z,27.90
2023-03-10T20:16:27.338Z,27.90
2023-03-10T20:18:53.971Z,27.90
2023-03-10T20:21:20.931Z,27.90
2023-03-10T20:23:48.432Z,27.80
2023-03-10T20:26:15.824Z,27.80
2023-03-10T20:28:42.951Z,27.70
2023-03-10T20:31:09.567Z,27.80
2023-03-10T20:33:36.454Z,27.70
2023-03-10T20:36:03.163Z,27.70
2023-03-10T20:38:29.704Z,27.70
2023-03-10T20:40:56.245Z,27.60
2023-03-10T20:43:22.842Z,27.60
2023-03-10T20:45:51.995Z,27.60
2023-03-10T20:48:18.610Z,27.70
2023-03-10T20:50:45.174Z,27.60
2023-03-10T20:53:11.725Z,27.60
2023-03-10T20:55:41.143Z,27.60
2023-03-10T20:58:08.459Z,27.60
2023-03-10T21:00:35.085Z,27.60
2023-03-10T21:03:01.902Z,27.60
2023-03-10T21:05:28.770Z,27.60
2023-03-10T21:07:55.512Z,27.60
2023-03-10T21:10:22.816Z,27.60
2023-03-10T21:12:49.944Z,27.60
2023-03-10T21:15:17.274Z,27.60
2023-03-10T21:17:44.815Z,27.60
2023-03-10T21:20:17.351Z,27.70
2023-03-10T21:22:44.009Z,27.60
2023-03-10T21:25:15.615Z,27.60
2023-03-10T21:27:44.125Z,27.60
2023-03-10T21:30:13.206Z,27.60
2023-03-10T21:32:39.977Z,27.60
2023-03-10T21:35:07.124Z,27.60
2023-03-10T21:37:35.264Z,27.50
2023-03-10T21:40:05.095Z,27.50
2023-03-10T21:42:31.715Z,27.50
2023-03-10T21:44:58.255Z,27.50
2023-03-10T21:47:24.864Z,27.50
2023-03-10T21:49:52.094Z,27.50
2023-03-10T21:52:18.670Z,27.50
2023-03-10T21:54:45.230Z,27.50
2023-03-10T21:57:11.863Z,27.50
2023-03-10T21:59:39.011Z,27.50
2023-03-10T22:02:05.562Z,27.50
2023-03-10T22:04:32.804Z,27.40
2023-03-10T22:06:59.923Z,27.50
2023-03-10T22:09:26.723Z,27.50
2023-03-10T22:11:53.305Z,27.50
2023-03-10T22:14:19.936Z,27.50
2023-03-10T22:16:46.491Z,27.50
2023-03-10T22:19:13.133Z,27.50
2023-03-10T22:21:39.684Z,27.50
2023-03-10T22:24:06.448Z,27.50
2023-03-10T22:26:33.015Z,27.50
2023-03-10T22:29:00.269Z,27.50
2023-03-10T22:31:26.836Z,27.50
2023-03-10T22:33:53.442Z,27.50
2023-03-10T22:36:20.053Z,27.50
2023-03-10T22:38:46.605Z,27.40
2023-03-10T22:41:13.754Z,27.50
2023-03-10T22:43:41.052Z,27.40
2023-03-10T22:46:12.971Z,27.40
2023-03-10T22:48:40.160Z,27.50
2023-03-10T22:51:08.803Z,27.40
2023-03-10T22:53:37.981Z,27.40
2023-03-10T22:56:05.399Z,27.50
2023-03-10T22:58:31.964Z,27.50
2023-03-10T23:00:58.881Z,27.50
2023-03-10T23:03:25.606Z,27.40
2023-03-10T23:05:52.233Z,27.40
2023-03-10T23:08:18.829Z,27.50
2023-03-10T23:10:45.527Z,27.50
2023-03-10T23:13:15.198Z,27.50
2023-03-10T23:15:42.966Z,27.50
2023-03-10T23:18:10.234Z,27.50
2023-03-10T23:20:48.911Z,27.50
2023-03-10T23:23:18.157Z,27.50
2023-03-10T23:25:47.764Z,27.50
2023-03-10T23:28:15.671Z,27.40
2023-03-10T23:30:44.470Z,27.40
2023-03-10T23:33:17.510Z,27.40
2023-03-10T23:35:46.223Z,27.50
2023-03-10T23:38:12.833Z,27.40
2023-03-10T23:40:39.380Z,27.40
2023-03-10T23:43:06.942Z,27.40
2023-03-10T23:45:37.049Z,27.40
2023-03-10T23:48:06.067Z,27.40
2023-03-10T23:50:36.308Z,27.40
2023-03-10T23:53:04.695Z,27.40
2023-03-10T23:55:34.843Z,27.40
2023-03-10T23:58:02.182Z,27.40
